Time;durP1;ratioP1;P1;durP2;ratioP2;P2;SDS_P1;SDS_P2;PMS_P1;PMS_P2;Temp;Humidity;BMP_temperature;BMP_pressure;BME280_temperature;BME280_humidity;BME280_pressure;Samples;Min_cycle;Max_cycle;Signal;HPM_P1;HPM_P2
2021/10/15 00:01:05;;;;;;;4.63;2.13;;;;;;;;;;4936576;29;20489;-70
2021/10/15 00:03:35;;;;;;;5.03;2.15;;;;;;;;;;4936882;29;20043;-71
2021/10/15 00:06:03;;;;;;;3.88;2.30;;;;;;;;;;4934760;29;20138;-74
2021/10/15 00:08:30;;;;;;;2.40;2.10;;;;;;;;;;4936028;29;20500;-74
2021/10/15 00:10:58;;;;;;;3.88;1.90;;;;;;;;;;4936505;29;20055;-74
2021/10/15 00:13:25;;;;;;;3.20;2.33;;;;;;;;;;4934904;29;20142;-74
2021/10/15 00:15:54;;;;;;;4.25;2.40;;;;;;;;;;4936282;29;20043;-73
2021/10/15 00:18:21;;;;;;;3.58;2.35;;;;;;;;;;4918996;29;20146;-75
2021/10/15 00:20:49;;;;;;;3.90;2.30;;;;;;;;;;4935888;29;20039;-73
2021/10/15 00:23:17;;;;;;;4.47;2.20;;;;;;;;;;4935939;29;20496;-74
2021/10/15 00:25:44;;;;;;;3.83;2.13;;;;;;;;;;4934996;29;20127;-71
2021/10/15 00:28:12;;;;;;;3.17;1.90;;;;;;;;;;4935980;29;20047;-73
2021/10/15 00:30:40;;;;;;;3.40;1.73;;;;;;;;;;4935573;29;20051;-73
2021/10/15 00:33:07;;;;;;;5.88;1.90;;;;;;;;;;4935624;29;20047;-73
2021/10/15 00:35:35;;;;;;;3.88;1.60;;;;;;;;;;4935397;29;20465;-73
2021/10/15 00:38:03;;;;;;;2.08;1.60;;;;;;;;;;4918876;29;20039;-73
2021/10/15 00:40:30;;;;;;;4.97;1.77;;;;;;;;;;4933003;29;20051;-73
2021/10/15 00:42:58;;;;;;;3.72;1.50;;;;;;;;;;4915484;29;20130;-73
2021/10/15 00:45:25;;;;;;;5.55;1.23;;;;;;;;;;4936018;29;20043;-73
2021/10/15 00:47:53;;;;;;;6.82;1.60;;;;;;;;;;4934720;29;20044;-74
2021/10/15 00:50:21;;;;;;;5.65;1.77;;;;;;;;;;4934406;29;20416;-73
2021/10/15 00:52:48;;;;;;;6.85;1.30;;;;;;;;;;4935718;29;20048;-73
2021/10/15 00:55:16;;;;;;;4.10;1.40;;;;;;;;;;4935778;29;20078;-74
2021/10/15 00:57:44;;;;;;;3.03;1.20;;;;;;;;;;4934006;29;20054;-71
2021/10/15 01:00:12;;;;;;;2.50;1.17;;;;;;;;;;4935812;29;20044;-71
2021/10/15 01:02:42;;;;;;;5.82;1.38;;;;;;;;;;4936167;29;20036;-72
2021/10/15 01:05:10;;;;;;;1.55;1.10;;;;;;;;;;4918381;29;20052;-73
2021/10/15 01:07:38;;;;;;;3.97;1.27;;;;;;;;;;4935315;29;20043;-73
2021/10/15 01:10:06;;;;;;;4.28;1.10;;;;;;;;;;4935290;29;20054;-71
2021/10/15 01:12:35;;;;;;;2.28;1.30;;;;;;;;;;4935508;29;20048;-70
2021/10/15 01:15:02;;;;;;;3.83;1.38;;;;;;;;;;4935756;29;20052;-74
2021/10/15 01:17:30;;;;;;;5.05;1.65;;;;;;;;;;4934208;29;20048;-73
2021/10/15 01:20:00;;;;;;;4.03;1.20;;;;;;;;;;4935380;29;20040;-74
2021/10/15 01:22:28;;;;;;;3.47;1.70;;;;;;;;;;4935694;29;20048;-73
2021/10/15 01:24:57;;;;;;;6.75;1.65;;;;;;;;;;4935748;29;20039;-70
2021/10/15 01:27:26;;;;;;;4.05;1.30;;;;;;;;;;4933842;29;20525;-71
2021/10/15 01:29:54;;;;;;;3.35;1.17;;;;;;;;;;4935210;29;20039;-72
2021/10/15 01:32:21;;;;;;;4.85;1.58;;;;;;;;;;4933816;29;20048;-74
2021/10/15 01:34:52;;;;;;;2.90;1.20;;;;;;;;;;4935341;29;20050;-74
2021/10/15 01:37:20;;;;;;;3.78;1.33;;;;;;;;;;4933844;29;20489;-73
2021/10/15 01:39:48;;;;;;;4.82;1.40;;;;;;;;;;4935476;29;20118;-73
2021/10/15 01:45:03;;;;;;;3.22;1.08;;;;;;;;;;4918022;29;20412;-74
2021/10/15 01:47:31;;;;;;;4.35;1.23;;;;;;;;;;4933545;29;20489;-72
2021/10/15 01:49:58;;;;;;;2.90;0.98;;;;;;;;;;4935186;29;20412;-74
2021/10/15 01:52:25;;;;;;;2.83;1.20;;;;;;;;;;4935109;29;20040;-73
2021/10/15 01:54:53;;;;;;;2.60;1.30;;;;;;;;;;4934986;29;20386;-73
2021/10/15 01:57:20;;;;;;;5.60;1.65;;;;;;;;;;4935379;29;20071;-72
2021/10/15 01:59:49;;;;;;;2.95;1.33;;;;;;;;;;4935225;29;20047;-73
2021/10/15 02:02:18;;;;;;;4.30;1.00;;;;;;;;;;4934501;29;20094;-73
2021/10/15 02:04:45;;;;;;;2.92;1.13;;;;;;;;;;4935135;29;20130;-73
2021/10/15 02:07:14;;;;;;;2.45;1.00;;;;;;;;;;4933929;29;20119;-73
2021/10/15 02:09:41;;;;;;;3.80;1.50;;;;;;;;;;4937106;29;20055;-73
2021/10/15 02:12:09;;;;;;;2.88;1.05;;;;;;;;;;4937356;29;20043;-73
2021/10/15 02:14:36;;;;;;;3.20;1.02;;;;;;;;;;4937651;29;20039;-74
2021/10/15 02:17:04;;;;;;;3.47;1.52;;;;;;;;;;4938158;29;20407;-73
2021/10/15 02:19:32;;;;;;;3.08;1.30;;;;;;;;;;4937040;29;20056;-73
2021/10/15 02:21:59;;;;;;;4.35;1.25;;;;;;;;;;4937528;29;20068;-73
2021/10/15 02:24:27;;;;;;;3.20;1.00;;;;;;;;;;4937349;29;20046;-72
2021/10/15 02:26:55;;;;;;;12.02;1.67;;;;;;;;;;4938308;29;20040;-73
2021/10/15 02:29:22;;;;;;;2.13;1.13;;;;;;;;;;4938146;29;20070;-70
2021/10/15 02:31:50;;;;;;;2.08;1.00;;;;;;;;;;4937655;29;20059;-71
2021/10/15 02:34:18;;;;;;;8.15;1.17;;;;;;;;;;4937959;29;20043;-74
2021/10/15 02:36:47;;;;;;;3.42;0.98;;;;;;;;;;4938300;29;20051;-73
2021/10/15 02:39:15;;;;;;;3.50;1.23;;;;;;;;;;4937956;29;20053;-73
2021/10/15 02:41:44;;;;;;;1.95;1.10;;;;;;;;;;4938065;29;20048;-74
2021/10/15 02:44:13;;;;;;;4.00;1.10;;;;;;;;;;4936263;29;20063;-74
2021/10/15 02:46:41;;;;;;;9.40;1.30;;;;;;;;;;4937517;29;20247;-74
2021/10/15 02:49:10;;;;;;;4.43;1.15;;;;;;;;;;4937865;29;20497;-74
2021/10/15 02:51:37;;;;;;;6.43;1.45;;;;;;;;;;4937736;29;20388;-73
2021/10/15 02:54:06;;;;;;;6.70;1.40;;;;;;;;;;4937887;29;20520;-73
2021/10/15 02:56:33;;;;;;;2.53;1.02;;;;;;;;;;4920767;29;20044;-72
2021/10/15 02:59:01;;;;;;;3.85;1.40;;;;;;;;;;4936002;29;20055;-72
2021/10/15 03:01:29;;;;;;;3.30;1.10;;;;;;;;;;4937494;29;20039;-72
2021/10/15 03:03:57;;;;;;;5.25;1.40;;;;;;;;;;4937503;29;20043;-72
2021/10/15 03:06:24;;;;;;;9.00;1.48;;;;;;;;;;4937359;29;20047;-72
2021/10/15 03:08:53;;;;;;;3.45;1.30;;;;;;;;;;4936234;29;20388;-72
2021/10/15 03:11:21;;;;;;;6.88;1.30;;;;;;;;;;4920574;29;20122;-73
2021/10/15 03:13:49;;;;;;;4.05;1.10;;;;;;;;;;4937228;29;20054;-72
2021/10/15 03:16:16;;;;;;;4.65;1.75;;;;;;;;;;4937100;29;20119;-71
2021/10/15 03:18:44;;;;;;;6.07;1.73;;;;;;;;;;4936067;29;20051;-72
2021/10/15 03:21:11;;;;;;;3.03;1.70;;;;;;;;;;4936781;29;20043;-72
2021/10/15 03:23:40;;;;;;;5.18;1.30;;;;;;;;;;4936486;29;20044;-72
2021/10/15 03:26:08;;;;;;;5.28;1.50;;;;;;;;;;4937363;29;20046;-72
2021/10/15 03:28:35;;;;;;;4.80;1.40;;;;;;;;;;4935443;29;20048;-72
2021/10/15 03:31:03;;;;;;;4.97;1.73;;;;;;;;;;4919931;29;20055;-72
2021/10/15 03:33:31;;;;;;;5.22;1.40;;;;;;;;;;4936935;29;20083;-72
2021/10/15 03:35:59;;;;;;;6.72;1.45;;;;;;;;;;4936862;29;20575;-73
2021/10/15 03:38:27;;;;;;;4.97;1.48;;;;;;;;;;4936684;29;20058;-72
2021/10/15 03:40:55;;;;;;;4.85;1.60;;;;;;;;;;4936541;29;20047;-72
2021/10/15 03:43:22;;;;;;;4.97;1.40;;;;;;;;;;4935276;29;20039;-72
2021/10/15 03:45:50;;;;;;;4.85;1.60;;;;;;;;;;4935618;29;20067;-72
2021/10/15 03:48:18;;;;;;;3.55;1.70;;;;;;;;;;4936734;29;20453;-72
2021/10/15 03:50:45;;;;;;;5.13;1.58;;;;;;;;;;4935411;29;20043;-72
2021/10/15 03:53:13;;;;;;;5.00;1.50;;;;;;;;;;4935696;29;20070;-73
2021/10/15 03:55:40;;;;;;;4.50;1.33;;;;;;;;;;4936687;29;20054;-72
2021/10/15 03:58:08;;;;;;;3.08;1.45;;;;;;;;;;4936037;29;20047;-73
2021/10/15 04:00:36;;;;;;;4.25;1.38;;;;;;;;;;4919709;29;20078;-73
2021/10/15 04:03:04;;;;;;;4.05;1.60;;;;;;;;;;4936631;29;20101;-72
2021/10/15 04:05:31;;;;;;;9.05;1.70;;;;;;;;;;4936394;29;20051;-72
2021/10/15 04:07:59;;;;;;;5.65;1.23;;;;;;;;;;4935214;29;20039;-71
2021/10/15 04:10:27;;;;;;;4.68;1.42;;;;;;;;;;4936347;29;20064;-71
2021/10/15 04:12:54;;;;;;;7.75;2.60;;;;;;;;;;4935892;29;20070;-73
2021/10/15 04:15:22;;;;;;;2.92;1.20;;;;;;;;;;4936313;29;20078;-73
2021/10/15 04:17:51;;;;;;;3.83;1.38;;;;;;;;;;4935157;29;20047;-72
2021/10/15 04:20:18;;;;;;;6.07;1.20;;;;;;;;;;4936493;29;20492;-72
2021/10/15 04:22:46;;;;;;;4.65;1.13;;;;;;;;;;4936325;29;20053;-72
2021/10/15 04:25:13;;;;;;;2.08;0.90;;;;;;;;;;4936049;29;20044;-73
2021/10/15 04:27:41;;;;;;;4.63;1.10;;;;;;;;;;4935583;29;20043;-72
2021/10/15 04:30:09;;;;;;;4.43;1.25;;;;;;;;;;4935944;29;20051;-72
2021/10/15 04:32:37;;;;;;;4.85;1.40;;;;;;;;;;4934956;29;20394;-73
2021/10/15 04:35:05;;;;;;;1.48;0.95;;;;;;;;;;4935772;29;20497;-72
2021/10/15 04:37:34;;;;;;;1.85;1.20;;;;;;;;;;4934794;29;20577;-72
2021/10/15 04:40:01;;;;;;;4.63;1.38;;;;;;;;;;4934208;29;20520;-72
2021/10/15 04:42:29;;;;;;;6.82;1.02;;;;;;;;;;4935664;29;20048;-72
2021/10/15 04:44:56;;;;;;;5.25;1.02;;;;;;;;;;4936149;29;20127;-73
2021/10/15 04:47:25;;;;;;;6.45;1.25;;;;;;;;;;4935687;29;20436;-72
2021/10/15 04:49:53;;;;;;;6.30;1.25;;;;;;;;;;4935591;29;20492;-73
2021/10/15 04:52:21;;;;;;;6.32;1.73;;;;;;;;;;4934660;29;20050;-72
2021/10/15 04:54:48;;;;;;;3.50;1.27;;;;;;;;;;4935542;29;20446;-71
2021/10/15 04:57:16;;;;;;;5.88;2.17;;;;;;;;;;4934220;29;20128;-73
2021/10/15 04:59:44;;;;;;;7.97;3.78;;;;;;;;;;4934596;29;20039;-74
2021/10/15 05:02:11;;;;;;;5.45;1.73;;;;;;;;;;4934778;29;20071;-73
2021/10/15 05:04:41;;;;;;;2.83;1.60;;;;;;;;;;4935611;29;20035;-72
2021/10/15 05:07:09;;;;;;;6.13;1.88;;;;;;;;;;4935269;29;20066;-72
2021/10/15 05:09:37;;;;;;;5.18;2.00;;;;;;;;;;4933758;29;20448;-73
2021/10/15 05:12:07;;;;;;;3.03;2.05;;;;;;;;;;4935532;29;20052;-73
2021/10/15 05:14:35;;;;;;;6.47;2.00;;;;;;;;;;4935445;29;20114;-73
2021/10/15 05:17:02;;;;;;;5.63;2.15;;;;;;;;;;4934121;29;20044;-73
2021/10/15 05:19:32;;;;;;;7.63;2.47;;;;;;;;;;4935794;29;20056;-73
2021/10/15 05:22:00;;;;;;;5.55;2.00;;;;;;;;;;4934348;29;20047;-72
2021/10/15 05:24:29;;;;;;;6.72;2.05;;;;;;;;;;4933901;29;20051;-72
2021/10/15 05:26:57;;;;;;;4.38;1.80;;;;;;;;;;4934203;29;20444;-73
2021/10/15 05:29:25;;;;;;;3.65;1.92;;;;;;;;;;4935094;29;20075;-73
2021/10/15 05:31:58;;;;;;;;;;;;;;;;;;4917922;29;20078;-73
2021/10/15 05:34:25;;;;;;;6.05;2.30;;;;;;;;;;4934111;29;19930;-72
2021/10/15 05:36:53;;;;;;;3.67;2.10;;;;;;;;;;4934453;29;20048;-73
2021/10/15 05:39:20;;;;;;;2.33;1.90;;;;;;;;;;4934614;29;20051;-72
2021/10/15 05:41:48;;;;;;;4.70;2.10;;;;;;;;;;4935100;29;20127;-72
2021/10/15 05:44:15;;;;;;;4.65;1.75;;;;;;;;;;4920970;29;20134;-72
2021/10/15 05:46:43;;;;;;;8.32;2.45;;;;;;;;;;4937759;29;20044;-72
2021/10/15 05:49:12;;;;;;;4.38;2.13;;;;;;;;;;4937321;29;20054;-73
2021/10/15 05:51:42;;;;;;;3.75;2.03;;;;;;;;;;4938236;29;20039;-73
2021/10/15 05:54:15;;;;;;;6.85;2.17;;;;;;;;;;4938128;29;20048;-73
2021/10/15 05:59:25;;;;;;;11.68;2.47;;;;;;;;;;4936604;29;20040;-74
2021/10/15 06:01:58;;;;;;;4.60;1.50;;;;;;;;;;4936619;29;20131;-72
2021/10/15 06:15:35;;;;;;;7.18;1.83;;;;;;;;;;4938242;29;20047;-72
2021/10/15 06:18:12;;;;;;;10.30;2.40;;;;;;;;;;4937656;29;20043;-71
2021/10/15 06:20:40;;;;;;;6.10;2.20;;;;;;;;;;4937845;29;20040;-71
2021/10/15 06:23:07;;;;;;;9.45;2.30;;;;;;;;;;4937378;29;20149;-71
2021/10/15 06:25:36;;;;;;;8.50;2.20;;;;;;;;;;4937968;29;20082;-74
2021/10/15 06:28:04;;;;;;;5.10;2.53;;;;;;;;;;4937823;29;20051;-74
2021/10/15 06:30:33;;;;;;;4.70;2.47;;;;;;;;;;4937599;29;20054;-72
2021/10/15 06:33:03;;;;;;;7.03;2.22;;;;;;;;;;4937663;29;20051;-72
2021/10/15 06:35:31;;;;;;;5.60;2.22;;;;;;;;;;4936454;29;20423;-74
2021/10/15 06:37:58;;;;;;;7.75;2.33;;;;;;;;;;4936096;29;20074;-73
2021/10/15 06:40:27;;;;;;;7.97;2.10;;;;;;;;;;4936337;29;20118;-72
2021/10/15 06:42:56;;;;;;;4.03;1.90;;;;;;;;;;4937525;29;20051;-72
2021/10/15 06:45:25;;;;;;;6.15;1.95;;;;;;;;;;4937489;29;20044;-72
2021/10/15 06:47:52;;;;;;;5.53;2.30;;;;;;;;;;4937787;29;20078;-72
2021/10/15 06:50:20;;;;;;;8.45;2.28;;;;;;;;;;4937501;29;20047;-73
2021/10/15 06:52:49;;;;;;;5.00;1.70;;;;;;;;;;4937332;29;20044;-73
2021/10/15 06:55:21;;;;;;;3.80;1.80;;;;;;;;;;4936431;29;20043;-73
2021/10/15 06:57:49;;;;;;;4.53;1.58;;;;;;;;;;4936184;29;20126;-72
2021/10/15 07:00:17;;;;;;;10.43;2.08;;;;;;;;;;4936354;29;20044;-74
2021/10/15 07:02:45;;;;;;;5.45;1.45;;;;;;;;;;4937170;29;20584;-71
2021/10/15 07:05:13;;;;;;;4.93;1.67;;;;;;;;;;4935527;29;20051;-76
2021/10/15 07:07:40;;;;;;;5.60;1.70;;;;;;;;;;4935674;29;20127;-73
2021/10/15 07:10:08;;;;;;;3.90;1.60;;;;;;;;;;4937133;29;20051;-71
2021/10/15 07:12:41;;;;;;;3.85;1.38;;;;;;;;;;4919915;29;20065;-75
2021/10/15 07:15:11;;;;;;;6.15;2.00;;;;;;;;;;4936893;29;20087;-71
2021/10/15 07:17:38;;;;;;;4.55;1.60;;;;;;;;;;4935434;29;20059;-71
2021/10/15 07:20:07;;;;;;;5.82;1.70;;;;;;;;;;4936187;29;20036;-72
2021/10/15 07:22:35;;;;;;;3.40;1.60;;;;;;;;;;4919647;29;20417;-72
2021/10/15 07:25:03;;;;;;;7.53;1.90;;;;;;;;;;4935634;29;20082;-73
2021/10/15 07:27:32;;;;;;;4.22;1.60;;;;;;;;;;4936685;29;20050;-71
2021/10/15 07:29:59;;;;;;;4.25;1.63;;;;;;;;;;4935349;29;20054;-71
2021/10/15 07:32:29;;;;;;;4.32;1.63;;;;;;;;;;4935395;29;20107;-71
2021/10/15 07:34:58;;;;;;;4.93;2.30;;;;;;;;;;4936587;29;20054;-73
2021/10/15 07:37:25;;;;;;;8.57;2.00;;;;;;;;;;4936372;29;20126;-71
2021/10/15 07:39:53;;;;;;;3.78;1.50;;;;;;;;;;4936407;29;20604;-71
2021/10/15 07:42:22;;;;;;;6.47;1.80;;;;;;;;;;4936556;29;20063;-71
2021/10/15 07:44:49;;;;;;;3.75;1.40;;;;;;;;;;4919285;29;20048;-71
2021/10/15 07:47:17;;;;;;;3.88;1.65;;;;;;;;;;4936385;29;20126;-71
2021/10/15 07:49:45;;;;;;;7.38;1.40;;;;;;;;;;4935171;29;20058;-71
2021/10/15 07:52:12;;;;;;;4.82;2.17;;;;;;;;;;4936066;29;20043;-73
2021/10/15 07:54:41;;;;;;;4.32;2.00;;;;;;;;;;4936213;29;20054;-73
2021/10/15 07:57:12;;;;;;;4.38;2.60;;;;;;;;;;4936397;29;20043;-74
2021/10/15 07:59:41;;;;;;;4.70;1.60;;;;;;;;;;4936066;29;20047;-72
2021/10/15 08:02:09;;;;;;;8.05;2.50;;;;;;;;;;4935581;29;20039;-74
2021/10/15 08:04:38;;;;;;;5.85;1.75;;;;;;;;;;4935734;29;20047;-72
2021/10/15 08:07:09;;;;;;;;;;;;;;;;;;4935255;29;20044;-71
2021/10/15 08:09:36;;;;;;;6.47;1.60;;;;;;;;;;4934820;29;19929;-71
2021/10/15 08:12:05;;;;;;;4.70;1.90;;;;;;;;;;4934529;29;20054;-71
2021/10/15 08:14:33;;;;;;;4.80;1.65;;;;;;;;;;4934323;29;20052;-71
2021/10/15 08:17:00;;;;;;;6.18;1.40;;;;;;;;;;4934591;29;20065;-71
2021/10/15 08:19:43;;;;;;;3.58;1.50;;;;;;;;;;4935533;29;20048;-71
2021/10/15 08:22:11;;;;;;;7.25;2.35;;;;;;;;;;4935728;29;20051;-71
2021/10/15 08:24:38;;;;;;;2.10;1.50;;;;;;;;;;4935985;29;20412;-74
2021/10/15 08:27:07;;;;;;;4.07;1.80;;;;;;;;;;4934776;29;20044;-71
2021/10/15 08:29:38;;;;;;;6.03;1.70;;;;;;;;;;4935336;29;20043;-71
2021/10/15 08:32:06;;;;;;;6.82;1.67;;;;;;;;;;4970560;23;20141;-74
2021/10/15 08:34:34;;;;;;;5.53;2.28;;;;;;;;;;4973933;28;20125;-71
2021/10/15 08:37:02;;;;;;;7.05;2.10;;;;;;;;;;4973749;28;20046;-71
2021/10/15 08:39:30;;;;;;;7.80;2.45;;;;;;;;;;4973995;28;20043;-72
2021/10/15 08:41:58;;;;;;;5.38;3.45;;;;;;;;;;4974188;28;20049;-73
2021/10/15 08:44:36;;;;;;;4.85;1.60;;;;;;;;;;4974012;28;20479;-73
2021/10/15 08:47:06;;;;;;;7.50;2.35;;;;;;;;;;4956680;28;20057;-71
2021/10/15 08:49:54;;;;;;;5.38;2.40;;;;;;;;;;4973662;28;20563;-71
2021/10/15 08:52:26;;;;;;;7.30;2.38;;;;;;;;;;4973700;28;20053;-73
2021/10/15 08:54:53;;;;;;;6.00;1.77;;;;;;;;;;4973421;28;20053;-73
2021/10/15 08:57:21;;;;;;;7.28;2.00;;;;;;;;;;4973642;28;20047;-72
2021/10/15 08:59:50;;;;;;;4.70;2.00;;;;;;;;;;4973725;28;20041;-70
2021/10/15 09:02:19;;;;;;;8.10;1.80;;;;;;;;;;4955704;28;20047;-72
2021/10/15 09:04:49;;;;;;;2.17;1.55;;;;;;;;;;4973820;28;20385;-70
2021/10/15 09:07:19;;;;;;;1.88;1.42;;;;;;;;;;4940302;28;20043;-71
2021/10/15 09:09:49;;;;;;;5.85;1.90;;;;;;;;;;4956347;28;20121;-71
2021/10/15 09:12:17;;;;;;;7.53;1.55;;;;;;;;;;4973590;28;20042;-70
2021/10/15 09:14:48;;;;;;;2.78;1.27;;;;;;;;;;4973486;28;20047;-73
2021/10/15 09:17:31;;;;;;;7.95;2.05;;;;;;;;;;4973154;28;20393;-70
2021/10/15 09:20:03;;;;;;;5.80;1.75;;;;;;;;;;4977290;28;20121;-70
2021/10/15 09:22:32;;;;;;;6.43;2.05;;;;;;;;;;4977445;28;20465;-71
2021/10/15 09:25:08;;;;;;;6.40;1.67;;;;;;;;;;4977174;28;20435;-70
2021/10/15 09:27:38;;;;;;;4.82;1.73;;;;;;;;;;4960159;28;20051;-71
2021/10/15 09:30:05;;;;;;;6.72;2.20;;;;;;;;;;4977398;28;20051;-72
2021/10/15 09:32:35;;;;;;;5.80;1.95;;;;;;;;;;4976596;28;20142;-70
2021/10/15 09:35:04;;;;;;;9.07;2.05;;;;;;;;;;4976810;28;20496;-72
2021/10/15 09:37:33;;;;;;;7.38;2.65;;;;;;;;;;4976999;28;20579;-72
2021/10/15 09:40:06;;;;;;;4.43;1.70;;;;;;;;;;4976758;28;20043;-71
2021/10/15 09:42:36;;;;;;;8.23;2.00;;;;;;;;;;4977289;28;20038;-70
2021/10/15 09:45:15;;;;;;;4.93;1.33;;;;;;;;;;4976678;28;20183;-71
2021/10/15 09:48:02;;;;;;;6.40;1.77;;;;;;;;;;4959419;28;20047;-70
2021/10/15 09:50:35;;;;;;;7.68;1.73;;;;;;;;;;4976831;28;20118;-71
2021/10/15 09:53:05;;;;;;;3.53;1.52;;;;;;;;;;4976751;28;20047;-73
2021/10/15 09:55:32;;;;;;;5.82;1.63;;;;;;;;;;4959522;28;20137;-72
2021/10/15 09:58:09;;;;;;;3.72;1.80;;;;;;;;;;4959564;28;20047;-70
2021/10/15 10:00:36;;;;;;;3.50;2.05;;;;;;;;;;4976305;28;20130;-70
2021/10/15 10:03:05;;;;;;;5.55;1.98;;;;;;;;;;4976497;28;20117;-73
2021/10/15 10:05:33;;;;;;;4.60;1.73;;;;;;;;;;4959167;28;20412;-70
2021/10/15 10:08:01;;;;;;;6.85;1.85;;;;;;;;;;4976550;28;20137;-70
2021/10/15 10:10:31;;;;;;;5.75;1.63;;;;;;;;;;4959297;28;20038;-71
2021/10/15 10:12:59;;;;;;;5.70;1.70;;;;;;;;;;4976687;28;20050;-71
2021/10/15 10:15:28;;;;;;;5.80;1.60;;;;;;;;;;4976021;28;20067;-73
2021/10/15 10:17:55;;;;;;;5.30;1.60;;;;;;;;;;4976320;28;20126;-73
2021/10/15 10:20:33;;;;;;;2.33;1.15;;;;;;;;;;4975930;28;20440;-70
2021/10/15 10:23:07;;;;;;;4.75;1.58;;;;;;;;;;4976308;28;20038;-73
2021/10/15 10:25:35;;;;;;;2.97;1.40;;;;;;;;;;4976551;28;20514;-71
2021/10/15 10:28:17;;;;;;;5.35;1.58;;;;;;;;;;4958632;28;20419;-71
2021/10/15 10:30:47;;;;;;;5.43;1.50;;;;;;;;;;4974802;28;20167;-73
2021/10/15 10:33:14;;;;;;;6.03;1.80;;;;;;;;;;4958954;28;20057;-71
2021/10/15 10:35:43;;;;;;;4.75;1.45;;;;;;;;;;4958530;28;20047;-70
2021/10/15 10:38:31;;;;;;;3.53;1.48;;;;;;;;;;4976117;28;20042;-71
2021/10/15 10:40:59;;;;;;;6.78;1.50;;;;;;;;;;4958642;28;20045;-73
2021/10/15 10:43:27;;;;;;;3.72;1.35;;;;;;;;;;4975386;28;20047;-71
2021/10/15 10:46:14;;;;;;;3.22;1.50;;;;;;;;;;4975975;28;20086;-74
2021/10/15 10:48:48;;;;;;;4.53;1.50;;;;;;;;;;4975535;28;20047;-72
2021/10/15 10:51:17;;;;;;;3.05;1.50;;;;;;;;;;4958888;28;20042;-72
2021/10/15 10:53:59;;;;;;;6.00;2.17;;;;;;;;;;4958182;28;20427;-73
2021/10/15 10:56:40;;;;;;;5.32;1.70;;;;;;;;;;4975996;28;20568;-71
2021/10/15 10:59:21;;;;;;;7.63;1.70;;;;;;;;;;4958285;28;20126;-70
2021/10/15 11:01:49;;;;;;;4.97;1.60;;;;;;;;;;4975562;28;20047;-72
2021/10/15 11:04:36;;;;;;;8.88;1.90;;;;;;;;;;4974985;28;20136;-73
2021/10/15 11:07:04;;;;;;;1.48;1.23;;;;;;;;;;4975461;28;20122;-70
2021/10/15 11:09:35;;;;;;;7.15;1.70;;;;;;;;;;4974782;28;20053;-70
2021/10/15 11:12:03;;;;;;;3.08;1.75;;;;;;;;;;4975395;28;20125;-73
2021/10/15 11:14:50;;;;;;;4.75;1.40;;;;;;;;;;4975017;28;20047;-71
2021/10/15 11:17:18;;;;;;;7.10;2.42;;;;;;;;;;4975067;28;20053;-71
2021/10/15 11:19:47;;;;;;;3.88;1.67;;;;;;;;;;4958188;28;20047;-71
2021/10/15 11:22:20;;;;;;;3.13;1.30;;;;;;;;;;4975039;28;20047;-70
2021/10/15 11:24:58;;;;;;;2.42;1.40;;;;;;;;;;4975315;28;20125;-75
2021/10/15 11:27:25;;;;;;;3.72;1.50;;;;;;;;;;4957712;28;20039;-71
2021/10/15 11:29:57;;;;;;;5.32;1.42;;;;;;;;;;4957814;28;20035;-74
2021/10/15 11:32:39;;;;;;;3.08;1.60;;;;;;;;;;4957742;28;20057;-74
2021/10/15 11:35:13;;;;;;;4.18;1.95;;;;;;;;;;4974693;28;20125;-71
2021/10/15 11:37:42;;;;;;;5.68;1.67;;;;;;;;;;4974635;28;20185;-71
2021/10/15 11:40:17;;;;;;;6.97;1.80;;;;;;;;;;4974156;28;20053;-71
2021/10/15 11:42:45;;;;;;;6.72;1.75;;;;;;;;;;4938187;29;20054;-71
2021/10/15 11:45:22;;;;;;;3.45;1.50;;;;;;;;;;4938132;29;20039;-71
2021/10/15 11:47:57;;;;;;;4.40;1.50;;;;;;;;;;4955409;29;20047;-71
2021/10/15 11:50:32;;;;;;;3.33;1.40;;;;;;;;;;4955654;29;20444;-71
2021/10/15 11:53:00;;;;;;;6.35;2.22;;;;;;;;;;4955477;29;20571;-74
2021/10/15 11:55:31;;;;;;;6.70;1.75;;;;;;;;;;4955494;29;20035;-73
2021/10/15 11:58:17;;;;;;;4.82;1.48;;;;;;;;;;4954985;29;20661;-72
2021/10/15 12:01:03;;;;;;;3.92;1.92;;;;;;;;;;4955514;29;20043;-75
2021/10/15 12:03:34;;;;;;;3.22;1.60;;;;;;;;;;4938622;29;20047;-73
2021/10/15 12:06:14;;;;;;;4.22;1.60;;;;;;;;;;4937398;29;20050;-72
2021/10/15 12:08:44;;;;;;;4.32;2.10;;;;;;;;;;4955075;29;20047;-73
2021/10/15 12:11:15;;;;;;;3.78;1.80;;;;;;;;;;4953997;29;20081;-73
2021/10/15 12:13:43;;;;;;;3.28;1.50;;;;;;;;;;4954696;29;20054;-70
2021/10/15 12:16:40;;;;;;;5.78;1.70;;;;;;;;;;4955050;29;20051;-72
2021/10/15 12:19:12;;;;;;;4.13;1.75;;;;;;;;;;4938836;29;20065;-70
2021/10/15 12:21:43;;;;;;;3.70;1.60;;;;;;;;;;4955320;29;20139;-72
2021/10/15 12:24:14;;;;;;;5.03;1.80;;;;;;;;;;4954467;29;20170;-73
2021/10/15 12:26:42;;;;;;;7.72;1.98;;;;;;;;;;4937987;29;20065;-73
2021/10/15 12:29:25;;;;;;;5.22;1.70;;;;;;;;;;4955399;29;20043;-73
2021/10/15 12:32:07;;;;;;;3.75;1.52;;;;;;;;;;4954956;28;20056;-73
2021/10/15 12:34:49;;;;;;;4.47;1.65;;;;;;;;;;4955040;29;20408;-72
2021/10/15 12:37:27;;;;;;;5.72;1.83;;;;;;;;;;4938407;29;20491;-72
2021/10/15 12:40:13;;;;;;;4.38;1.98;;;;;;;;;;4942961;28;20097;-71
2021/10/15 12:42:41;;;;;;;5.43;2.00;;;;;;;;;;4974943;28;20377;-73
2021/10/15 12:45:12;;;;;;;4.57;1.85;;;;;;;;;;4971113;28;20110;-72
2021/10/15 12:47:40;;;;;;;3.30;1.65;;;;;;;;;;4978853;28;20038;-71
2021/10/15 12:50:13;;;;;;;4.05;1.88;;;;;;;;;;4974940;28;20143;-71
2021/10/15 12:52:42;;;;;;;7.68;1.77;;;;;;;;;;4972351;28;20102;-73
2021/10/15 12:55:15;;;;;;;5.40;1.52;;;;;;;;;;4973033;28;20047;-73
2021/10/15 12:57:44;;;;;;;3.13;1.70;;;;;;;;;;4973063;28;20070;-71
2021/10/15 13:00:14;;;;;;;6.05;2.13;;;;;;;;;;4956352;28;20130;-72
2021/10/15 13:02:42;;;;;;;6.00;1.77;;;;;;;;;;4973103;28;20094;-73
2021/10/15 13:05:11;;;;;;;4.50;1.85;;;;;;;;;;4967223;28;20043;-74
2021/10/15 13:07:39;;;;;;;3.65;1.40;;;;;;;;;;4954948;29;20035;-71
2021/10/15 13:10:17;;;;;;;4.60;1.70;;;;;;;;;;4954501;29;20130;-71
2021/10/15 13:12:46;;;;;;;6.57;1.42;;;;;;;;;;4954625;29;20047;-74
2021/10/15 13:15:20;;;;;;;5.07;1.65;;;;;;;;;;4949928;28;20050;-73
2021/10/15 13:17:50;;;;;;;5.18;1.73;;;;;;;;;;4983180;28;20042;-71
2021/10/15 13:20:21;;;;;;;1.73;1.50;;;;;;;;;;4992716;28;20089;-71
2021/10/15 13:22:49;;;;;;;5.55;1.55;;;;;;;;;;4976067;28;20042;-75
2021/10/15 13:25:18;;;;;;;5.65;1.70;;;;;;;;;;4992221;28;20383;-73
2021/10/15 13:27:45;;;;;;;6.53;1.77;;;;;;;;;;4972315;28;20043;-71
2021/10/15 13:30:13;;;;;;;5.72;2.63;;;;;;;;;;4972744;28;20477;-73
2021/10/15 13:32:40;;;;;;;5.85;1.55;;;;;;;;;;4973555;28;20050;-72
2021/10/15 13:35:08;;;;;;;2.17;1.27;;;;;;;;;;4972506;28;20139;-74
2021/10/15 13:37:40;;;;;;;5.85;2.00;;;;;;;;;;4973433;28;20054;-74
2021/10/15 13:40:09;;;;;;;3.25;1.77;;;;;;;;;;4974178;28;20073;-71
2021/10/15 13:43:04;;;;;;;3.63;1.85;;;;;;;;;;4974144;28;20054;-74
2021/10/15 13:51:05;;;;;;;4.28;1.52;;;;;;;;;;4974034;28;20043;-72
2021/10/15 13:53:37;;;;;;;5.07;1.45;;;;;;;;;;4973809;28;20053;-72
2021/10/15 13:56:07;;;;;;;8.40;1.95;;;;;;;;;;4973850;28;20460;-75
2021/10/15 13:58:41;;;;;;;3.78;1.90;;;;;;;;;;4974121;28;20043;-75
2021/10/15 14:01:15;;;;;;;6.90;1.90;;;;;;;;;;4972555;28;20485;-71
2021/10/15 14:04:13;;;;;;;4.43;1.80;;;;;;;;;;4975017;28;20042;-73
2021/10/15 14:06:36;;;;;;;4.45;2.00;;;;;;;;;;4974321;28;20051;-71
2021/10/15 14:09:06;;;;;;;3.50;1.60;;;;;;;;;;4958946;28;20058;-72
2021/10/15 14:11:35;;;;;;;4.47;1.90;;;;;;;;;;4967268;28;20113;-73
2021/10/15 14:14:04;;;;;;;8.20;1.67;;;;;;;;;;4957342;28;20476;-71
2021/10/15 14:16:32;;;;;;;2.15;1.40;;;;;;;;;;4974920;28;20133;-70
2021/10/15 14:18:59;;;;;;;3.00;1.42;;;;;;;;;;4952260;28;20527;-71
2021/10/15 14:21:28;;;;;;;5.53;1.83;;;;;;;;;;4960709;28;20461;-71
2021/10/15 14:23:56;;;;;;;3.72;1.75;;;;;;;;;;4965426;28;20179;-71
2021/10/15 14:26:24;;;;;;;8.20;2.30;;;;;;;;;;4973621;28;20141;-71
2021/10/15 14:28:53;;;;;;;4.80;1.75;;;;;;;;;;4973207;28;20050;-72
2021/10/15 14:31:20;;;;;;;5.07;1.60;;;;;;;;;;4973050;28;20118;-75
2021/10/15 14:33:48;;;;;;;6.65;1.88;;;;;;;;;;4972121;28;20060;-72
2021/10/15 14:36:15;;;;;;;6.53;2.13;;;;;;;;;;4957860;28;20053;-74
2021/10/15 14:38:43;;;;;;;5.30;1.65;;;;;;;;;;4973182;28;20058;-72
2021/10/15 14:41:11;;;;;;;4.10;2.13;;;;;;;;;;4975712;28;20129;-73
2021/10/15 14:43:38;;;;;;;5.65;1.67;;;;;;;;;;4975655;28;20116;-71
2021/10/15 14:46:07;;;;;;;6.03;2.08;;;;;;;;;;4974404;28;20042;-73
2021/10/15 14:48:35;;;;;;;3.03;1.83;;;;;;;;;;4975673;28;20508;-75
2021/10/15 14:51:02;;;;;;;3.00;1.50;;;;;;;;;;4958540;28;20074;-73
2021/10/15 14:53:30;;;;;;;3.00;1.60;;;;;;;;;;4975153;28;20093;-73
2021/10/15 14:55:58;;;;;;;5.93;2.17;;;;;;;;;;4990131;28;20133;-72
2021/10/15 14:58:26;;;;;;;4.00;2.00;;;;;;;;;;4975084;28;20049;-73
2021/10/15 15:00:57;;;;;;;5.68;1.65;;;;;;;;;;4975179;28;20126;-71
2021/10/15 15:03:26;;;;;;;3.45;1.80;;;;;;;;;;4953636;28;20054;-73
2021/10/15 15:05:54;;;;;;;5.28;1.55;;;;;;;;;;4954058;29;20489;-71
2021/10/15 15:08:22;;;;;;;5.50;1.80;;;;;;;;;;4954113;28;20042;-72
2021/10/15 15:10:49;;;;;;;4.30;1.80;;;;;;;;;;4953931;28;20397;-71
2021/10/15 15:13:17;;;;;;;4.35;1.58;;;;;;;;;;4952434;29;20138;-73
2021/10/15 15:15:45;;;;;;;4.85;1.65;;;;;;;;;;4951283;28;20425;-74
2021/10/15 15:18:13;;;;;;;2.20;1.60;;;;;;;;;;4954008;29;20053;-74
2021/10/15 15:20:41;;;;;;;6.22;2.05;;;;;;;;;;4952511;29;20572;-73